sensor_id;sensor_type;location;lat;lon;timestamp;pressure;altitude;pressure_sealevel;temperature;humidity
73558;BME280;61829;53.286;10.434;2023-09-12T00:01:12;100914.16;;;21.90;77.73
73558;BME280;61829;53.286;10.434;2023-09-12T00:03:38;100913.34;;;21.89;78.23
73558;BME280;61829;53.286;10.434;2023-09-12T00:06:04;100925.06;;;21.85;78.72
73558;BME280;61829;53.286;10.434;2023-09-12T00:08:30;100915.13;;;21.79;78.65
73558;BME280;61829;53.286;10.434;2023-09-12T00:11:05;100928.31;;;21.82;78.56
73558;BME280;61829;53.286;10.434;2023-09-12T00:13:32;100938.47;;;21.81;78.81
73558;BME280;61829;53.286;10.434;2023-09-12T00:15:58;100941.22;;;21.81;78.81
73558;BME280;61829;53.286;10.434;2023-09-12T00:18:25;100936.25;;;21.78;78.80
73558;BME280;61829;53.286;10.434;2023-09-12T00:20:50;100935.66;;;21.76;78.40
73558;BME280;61829;53.286;10.434;2023-09-12T00:23:18;100940.03;;;21.72;78.61
73558;BME280;61829;53.286;10.434;2023-09-12T00:25:44;100932.88;;;21.71;79.11
73558;BME280;61829;53.286;10.434;2023-09-12T00:28:10;100939.72;;;21.68;79.13
73558;BME280;61829;53.286;10.434;2023-09-12T00:30:37;100941.88;;;21.66;79.02
73558;BME280;61829;53.286;10.434;2023-09-12T00:33:03;100943.22;;;21.64;79.18
73558;BME280;61829;53.286;10.434;2023-09-12T00:35:29;100936.31;;;21.61;78.80
73558;BME280;61829;53.286;10.434;2023-09-12T00:37:56;100942.06;;;21.60;78.97
73558;BME280;61829;53.286;10.434;2023-09-12T00:40:22;100937.94;;;21.57;79.42
73558;BME280;61829;53.286;10.434;2023-09-12T00:42:48;100938.41;;;21.54;79.26
73558;BME280;61829;53.286;10.434;2023-09-12T00:45:14;100938.09;;;21.50;79.62
73558;BME280;61829;53.286;10.434;2023-09-12T00:47:40;100927.66;;;21.47;79.87
73558;BME280;61829;53.286;10.434;2023-09-12T00:50:08;100932.25;;;21.42;80.34
73558;BME280;61829;53.286;10.434;2023-09-12T00:52:35;100938.47;;;21.37;80.49
73558;BME280;61829;53.286;10.434;2023-09-12T00:55:02;100937.88;;;21.35;80.82
73558;BME280;61829;53.286;10.434;2023-09-12T00:57:30;100941.97;;;21.33;81.02
73558;BME280;61829;53.286;10.434;2023-09-12T00:59:58;100944.63;;;21.27;81.43
73558;BME280;61829;53.286;10.434;2023-09-12T01:02:24;100934.41;;;21.23;81.87
73558;BME280;61829;53.286;10.434;2023-09-12T01:04:51;100949.72;;;21.19;81.62
73558;BME280;61829;53.286;10.434;2023-09-12T01:07:17;100944.75;;;21.16;81.56
73558;BME280;61829;53.286;10.434;2023-09-12T01:09:43;100952.38;;;21.14;81.92
73558;BME280;61829;53.286;10.434;2023-09-12T01:12:10;100942.75;;;21.11;81.90
73558;BME280;61829;53.286;10.434;2023-09-12T01:14:40;100946.81;;;21.08;82.75
73558;BME280;61829;53.286;10.434;2023-09-12T01:17:06;100952.56;;;21.07;82.49
73558;BME280;61829;53.286;10.434;2023-09-12T01:19:33;100952.81;;;21.05;82.76
73558;BME280;61829;53.286;10.434;2023-09-12T01:27:46;100950.50;;;20.97;83.27
73558;BME280;61829;53.286;10.434;2023-09-12T01:30:16;100952.41;;;20.97;83.73
73558;BME280;61829;53.286;10.434;2023-09-12T01:32:43;100943.28;;;20.91;85.49
73558;BME280;61829;53.286;10.434;2023-09-12T01:35:09;100939.41;;;20.87;85.69
73558;BME280;61829;53.286;10.434;2023-09-12T01:37:35;100932.25;;;20.86;85.35
73558;BME280;61829;53.286;10.434;2023-09-12T01:40:02;100910.84;;;20.83;85.98
73558;BME280;61829;53.286;10.434;2023-09-12T01:42:42;100904.81;;;20.81;86.66
73558;BME280;61829;53.286;10.434;2023-09-12T01:45:10;100909.69;;;20.79;86.64
73558;BME280;61829;53.286;10.434;2023-09-12T01:47:38;100898.97;;;20.77;86.88
73558;BME280;61829;53.286;10.434;2023-09-12T01:50:05;100896.50;;;20.76;87.53
73558;BME280;61829;53.286;10.434;2023-09-12T01:52:34;100887.47;;;20.75;87.73
73558;BME280;61829;53.286;10.434;2023-09-12T01:55:02;100877.56;;;20.74;87.88
73558;BME280;61829;53.286;10.434;2023-09-12T01:57:29;100882.22;;;20.74;87.82
73558;BME280;61829;53.286;10.434;2023-09-12T01:59:56;100883.88;;;20.75;87.85
73558;BME280;61829;53.286;10.434;2023-09-12T02:02:22;100873.78;;;20.75;87.72
73558;BME280;61829;53.286;10.434;2023-09-12T02:05:12;100886.38;;;20.76;88.00
73558;BME280;61829;53.286;10.434;2023-09-12T02:07:41;100873.25;;;20.78;88.51
73558;BME280;61829;53.286;10.434;2023-09-12T02:10:08;100871.34;;;20.79;87.93
73558;BME280;61829;53.286;10.434;2023-09-12T02:12:57;100885.03;;;20.79;87.96
73558;BME280;61829;53.286;10.434;2023-09-12T02:15:23;100881.47;;;20.78;89.57
73558;BME280;61829;53.286;10.434;2023-09-12T02:17:49;100880.38;;;20.79;88.69
73558;BME280;61829;53.286;10.434;2023-09-12T02:20:18;100872.44;;;20.78;88.42
73558;BME280;61829;53.286;10.434;2023-09-12T02:22:45;100874.91;;;20.79;88.07
73558;BME280;61829;53.286;10.434;2023-09-12T02:25:11;100881.22;;;20.80;88.13
73558;BME280;61829;53.286;10.434;2023-09-12T02:27:37;100894.66;;;20.81;88.29
73558;BME280;61829;53.286;10.434;2023-09-12T02:30:04;100904.28;;;20.84;88.81
73558;BME280;61829;53.286;10.434;2023-09-12T02:32:30;100902.63;;;20.83;88.29
73558;BME280;61829;53.286;10.434;2023-09-12T02:34:56;100904.84;;;20.86;88.30
73558;BME280;61829;53.286;10.434;2023-09-12T02:37:23;100918.56;;;20.86;88.58
73558;BME280;61829;53.286;10.434;2023-09-12T02:39:49;100923.22;;;20.85;88.51
73558;BME280;61829;53.286;10.434;2023-09-12T02:42:15;100929.78;;;20.84;88.57
73558;BME280;61829;53.286;10.434;2023-09-12T02:44:41;100950.88;;;20.84;87.89
73558;BME280;61829;53.286;10.434;2023-09-12T02:47:07;100955.25;;;20.85;88.20
73558;BME280;61829;53.286;10.434;2023-09-12T02:49:33;100957.41;;;20.83;87.67
73558;BME280;61829;53.286;10.434;2023-09-12T02:51:59;100970.28;;;20.82;87.86
73558;BME280;61829;53.286;10.434;2023-09-12T02:54:25;100978.75;;;20.81;87.75
73558;BME280;61829;53.286;10.434;2023-09-12T02:56:51;100991.59;;;20.80;87.17
73558;BME280;61829;53.286;10.434;2023-09-12T02:59:17;100995.09;;;20.76;87.05
73558;BME280;61829;53.286;10.434;2023-09-12T03:01:45;100984.97;;;20.76;87.11
73558;BME280;61829;53.286;10.434;2023-09-12T03:04:10;100985.22;;;20.75;87.62
73558;BME280;61829;53.286;10.434;2023-09-12T03:06:37;100984.66;;;20.73;87.42
73558;BME280;61829;53.286;10.434;2023-09-12T03:09:03;100985.97;;;20.70;87.90
73558;BME280;61829;53.286;10.434;2023-09-12T03:11:29;100979.06;;;20.68;88.26
73558;BME280;61829;53.286;10.434;2023-09-12T03:13:55;100984.78;;;20.66;88.52
73558;BME280;61829;53.286;10.434;2023-09-12T03:16:21;100981.22;;;20.66;89.21
73558;BME280;61829;53.286;10.434;2023-09-12T03:18:49;100972.19;;;20.65;88.84
73558;BME280;61829;53.286;10.434;2023-09-12T03:25:06;100990.66;;;20.58;89.08
73558;BME280;61829;53.286;10.434;2023-09-12T03:27:33;100991.75;;;20.57;89.09
73558;BME280;61829;53.286;10.434;2023-09-12T03:29:58;101001.88;;;20.56;89.06
73558;BME280;61829;53.286;10.434;2023-09-12T03:32:24;101002.97;;;20.55;88.82
73558;BME280;61829;53.286;10.434;2023-09-12T03:34:50;101001.88;;;20.56;89.03
73558;BME280;61829;53.286;10.434;2023-09-12T03:37:16;101009.50;;;20.54;88.66
73558;BME280;61829;53.286;10.434;2023-09-12T03:39:42;100989.97;;;20.51;89.68
73558;BME280;61829;53.286;10.434;2023-09-12T03:42:09;100987.47;;;20.49;89.21
73558;BME280;61829;53.286;10.434;2023-09-12T03:44:34;100986.44;;;20.50;88.61
73558;BME280;61829;53.286;10.434;2023-09-12T03:47:01;100985.59;;;20.50;89.49
73558;BME280;61829;53.286;10.434;2023-09-12T03:49:27;100981.19;;;20.49;89.74
73558;BME280;61829;53.286;10.434;2023-09-12T03:51:54;100968.31;;;20.49;89.60
73558;BME280;61829;53.286;10.434;2023-09-12T03:54:20;100974.88;;;20.48;89.16
73558;BME280;61829;53.286;10.434;2023-09-12T03:56:47;100958.72;;;20.47;89.72
73558;BME280;61829;53.286;10.434;2023-09-12T03:59:13;100968.00;;;20.46;89.52
73558;BME280;61829;53.286;10.434;2023-09-12T04:01:39;100948.50;;;20.42;89.96
73558;BME280;61829;53.286;10.434;2023-09-12T04:04:05;100955.28;;;20.39;89.82
73558;BME280;61829;53.286;10.434;2023-09-12T04:06:31;100966.75;;;20.36;90.12
73558;BME280;61829;53.286;10.434;2023-09-12T04:08:57;100969.97;;;20.33;90.28
73558;BME280;61829;53.286;10.434;2023-09-12T04:11:23;100975.94;;;20.30;90.63
73558;BME280;61829;53.286;10.434;2023-09-12T04:13:49;100960.56;;;20.29;91.01
73558;BME280;61829;53.286;10.434;2023-09-12T04:16:15;100937.03;;;20.28;90.59
73558;BME280;61829;53.286;10.434;2023-09-12T04:18:41;100944.66;;;20.26;91.41
73558;BME280;61829;53.286;10.434;2023-09-12T04:21:08;100936.94;;;20.23;91.90
73558;BME280;61829;53.286;10.434;2023-09-12T04:23:34;100942.69;;;20.22;91.67
73558;BME280;61829;53.286;10.434;2023-09-12T04:26:00;100946.47;;;20.21;91.84
73558;BME280;61829;53.286;10.434;2023-09-12T04:28:28;100938.25;;;20.21;91.86
73558;BME280;61829;53.286;10.434;2023-09-12T04:31:07;100953.03;;;20.19;91.28
73558;BME280;61829;53.286;10.434;2023-09-12T04:33:33;100962.06;;;20.20;91.59
73558;BME280;61829;53.286;10.434;2023-09-12T04:36:02;100949.19;;;20.21;92.20
73558;BME280;61829;53.286;10.434;2023-09-12T04:38:29;100968.34;;;20.21;92.60
73558;BME280;61829;53.286;10.434;2023-09-12T04:40:56;100976.56;;;20.21;92.50
73558;BME280;61829;53.286;10.434;2023-09-12T04:43:23;100981.22;;;20.20;93.81
73558;BME280;61829;53.286;10.434;2023-09-12T04:45:49;100992.16;;;20.20;93.32
73558;BME280;61829;53.286;10.434;2023-09-12T04:48:15;100993.81;;;20.21;93.74
73558;BME280;61829;53.286;10.434;2023-09-12T04:50:42;101005.63;;;20.22;93.94
73558;BME280;61829;53.286;10.434;2023-09-12T04:53:10;101007.50;;;20.21;94.25
73558;BME280;61829;53.286;10.434;2023-09-12T04:55:37;100985.88;;;20.19;94.03
73558;BME280;61829;53.286;10.434;2023-09-12T04:58:04;100994.31;;;20.18;94.42
73558;BME280;61829;53.286;10.434;2023-09-12T05:00:31;101007.75;;;20.19;94.31
73558;BME280;61829;53.286;10.434;2023-09-12T05:02:57;101001.47;;;20.19;94.53
73558;BME280;61829;53.286;10.434;2023-09-12T05:05:23;101007.50;;;20.21;95.05
73558;BME280;61829;53.286;10.434;2023-09-12T05:07:50;101009.19;;;20.22;95.50
73558;BME280;61829;53.286;10.434;2023-09-12T05:10:17;101018.69;;;20.19;95.59
73558;BME280;61829;53.286;10.434;2023-09-12T05:12:45;101021.34;;;20.14;95.65
73558;BME280;61829;53.286;10.434;2023-09-12T05:15:11;101024.31;;;20.13;95.29
73558;BME280;61829;53.286;10.434;2023-09-12T05:17:37;101022.41;;;20.13;95.28
73558;BME280;61829;53.286;10.434;2023-09-12T05:20:04;101016.69;;;20.15;96.19
73558;BME280;61829;53.286;10.434;2023-09-12T05:22:33;101018.38;;;20.16;96.39
73558;BME280;61829;53.286;10.434;2023-09-12T05:24:59;101017.50;;;20.15;96.41
73558;BME280;61829;53.286;10.434;2023-09-12T05:27:25;101020.25;;;20.15;96.65
73558;BME280;61829;53.286;10.434;2023-09-12T05:29:51;100996.69;;;20.14;97.09
73558;BME280;61829;53.286;10.434;2023-09-12T05:32:17;100969.84;;;20.11;97.10
73558;BME280;61829;53.286;10.434;2023-09-12T05:34:44;100934.28;;;20.11;96.53
73558;BME280;61829;53.286;10.434;2023-09-12T05:37:11;100895.31;;;20.04;96.92
73558;BME280;61829;53.286;10.434;2023-09-12T05:39:37;100903.31;;;19.94;97.49
73558;BME280;61829;53.286;10.434;2023-09-12T05:42:04;100944.84;;;19.91;97.73
73558;BME280;61829;53.286;10.434;2023-09-12T05:44:30;100958.25;;;19.92;97.72
73558;BME280;61829;53.286;10.434;2023-09-12T05:46:56;100939.69;;;19.94;97.83
73558;BME280;61829;53.286;10.434;2023-09-12T05:49:22;100912.94;;;19.96;97.62
73558;BME280;61829;53.286;10.434;2023-09-12T05:51:48;100917.00;;;19.94;97.24
73558;BME280;61829;53.286;10.434;2023-09-12T05:54:14;100909.00;;;19.92;97.05
73558;BME280;61829;53.286;10.434;2023-09-12T05:56:41;100916.16;;;19.93;97.34
73558;BME280;61829;53.286;10.434;2023-09-12T05:59:07;100931.25;;;19.96;97.34
73558;BME280;61829;53.286;10.434;2023-09-12T06:01:33;100943.84;;;19.97;97.10
73558;BME280;61829;53.286;10.434;2023-09-12T06:03:59;100954.56;;;19.99;97.15
73558;BME280;61829;53.286;10.434;2023-09-12T06:06:26;100965.25;;;20.00;97.06
73558;BME280;61829;53.286;10.434;2023-09-12T06:08:52;100974.28;;;20.01;97.08
73558;BME280;61829;53.286;10.434;2023-09-12T06:11:19;100981.91;;;19.99;97.51
73558;BME280;61829;53.286;10.434;2023-09-12T06:13:45;100989.28;;;19.98;97.29
73558;BME280;61829;53.286;10.434;2023-09-12T06:16:12;100996.41;;;19.99;97.32
73558;BME280;61829;53.286;10.434;2023-09-12T06:18:38;100995.34;;;20.00;97.17
73558;BME280;61829;53.286;10.434;2023-09-12T06:21:04;100985.22;;;20.01;97.07
73558;BME280;61829;53.286;10.434;2023-09-12T06:23:34;100999.16;;;19.99;96.79
73558;BME280;61829;53.286;10.434;2023-09-12T06:26:00;101007.09;;;20.01;96.97
73558;BME280;61829;53.286;10.434;2023-09-12T06:28:29;100994.03;;;20.03;97.37
73558;BME280;61829;53.286;10.434;2023-09-12T06:30:56;100984.16;;;20.02;97.12
73558;BME280;61829;53.286;10.434;2023-09-12T06:33:25;101002.22;;;20.03;97.73
73558;BME280;61829;53.286;10.434;2023-09-12T06:35:52;101006.38;;;20.05;97.75
73558;BME280;61829;53.286;10.434;2023-09-12T06:38:19;101001.25;;;20.09;97.81
73558;BME280;61829;53.286;10.434;2023-09-12T06:40:46;100997.19;;;20.11;98.26
73558;BME280;61829;53.286;10.434;2023-09-12T06:43:13;101000.53;;;20.13;98.01
73558;BME280;61829;53.286;10.434;2023-09-12T06:45:43;100999.44;;;20.14;98.30
73558;BME280;61829;53.286;10.434;2023-09-12T06:48:09;101020.84;;;20.17;98.09
73558;BME280;61829;53.286;10.434;2023-09-12T06:50:35;101026.41;;;20.23;98.16
73558;BME280;61829;53.286;10.434;2023-09-12T06:53:05;101037.22;;;20.29;98.02
73558;BME280;61829;53.286;10.434;2023-09-12T06:55:32;101047.78;;;20.37;98.58
73558;BME280;61829;53.286;10.434;2023-09-12T06:57:59;101072.50;;;20.42;98.70
73558;BME280;61829;53.286;10.434;2023-09-12T07:00:25;101083.78;;;20.46;98.56
73558;BME280;61829;53.286;10.434;2023-09-12T07:02:53;101090.47;;;20.50;98.09
73558;BME280;61829;53.286;10.434;2023-09-12T07:05:19;101076.19;;;20.48;98.24
73558;BME280;61829;53.286;10.434;2023-09-12T07:07:45;101083.78;;;20.46;98.11
73558;BME280;61829;53.286;10.434;2023-09-12T07:10:11;101075.00;;;20.44;97.63
73558;BME280;61829;53.286;10.434;2023-09-12T07:12:38;101071.53;;;20.49;97.29
73558;BME280;61829;53.286;10.434;2023-09-12T07:15:04;101062.75;;;20.47;96.94
73558;BME280;61829;53.286;10.434;2023-09-12T07:17:30;101071.41;;;20.44;96.80
73558;BME280;61829;53.286;10.434;2023-09-12T07:19:56;101059.59;;;20.67;95.24
73558;BME280;61829;53.286;10.434;2023-09-12T07:22:23;101070.38;;;20.73;95.01
73558;BME280;61829;53.286;10.434;2023-09-12T07:24:49;101056.25;;;20.65;95.81
73558;BME280;61829;53.286;10.434;2023-09-12T07:27:15;101069.06;;;20.47;96.54
73558;BME280;61829;53.286;10.434;2023-09-12T07:29:41;101071.84;;;20.35;97.45
73558;BME280;61829;53.286;10.434;2023-09-12T07:32:07;101066.38;;;20.35;97.89
73558;BME280;61829;53.286;10.434;2023-09-12T07:34:33;101067.69;;;20.33;98.32
73558;BME280;61829;53.286;10.434;2023-09-12T07:36:59;101051.50;;;20.31;98.50
73558;BME280;61829;53.286;10.434;2023-09-12T07:39:25;101047.09;;;20.30;98.24
73558;BME280;61829;53.286;10.434;2023-09-12T07:41:52;101032.59;;;20.30;98.44
73558;BME280;61829;53.286;10.434;2023-09-12T07:44:17;101027.94;;;20.30;97.77
73558;BME280;61829;53.286;10.434;2023-09-12T07:46:44;101027.13;;;20.30;97.71
73558;BME280;61829;53.286;10.434;2023-09-12T07:49:10;101021.66;;;20.30;98.20
73558;BME280;61829;53.286;10.434;2023-09-12T07:51:36;101022.47;;;20.30;97.65
73558;BME280;61829;53.286;10.434;2023-09-12T07:54:02;101026.25;;;20.29;98.25
73558;BME280;61829;53.286;10.434;2023-09-12T07:56:28;101013.44;;;20.30;98.12
73558;BME280;61829;53.286;10.434;2023-09-12T07:58:57;101012.94;;;20.33;98.40
73558;BME280;61829;53.286;10.434;2023-09-12T08:01:23;101036.50;;;20.34;98.49
73558;BME280;61829;53.286;10.434;2023-09-12T08:03:49;101039.22;;;20.34;98.93
73558;BME280;61829;53.286;10.434;2023-09-12T08:06:16;101043.88;;;20.33;98.73
73558;BME280;61829;53.286;10.434;2023-09-12T08:08:42;101032.09;;;20.33;98.93
73558;BME280;61829;53.286;10.434;2023-09-12T08:11:08;101038.63;;;20.32;98.73
73558;BME280;61829;53.286;10.434;2023-09-12T08:13:34;101049.47;;;20.27;98.87
73558;BME280;61829;53.286;10.434;2023-09-12T08:16:01;101054.13;;;20.26;99.07
73558;BME280;61829;53.286;10.434;2023-09-12T08:18:30;101056.38;;;20.29;98.84
73558;BME280;61829;53.286;10.434;2023-09-12T08:21:04;101064.34;;;20.31;98.79
73558;BME280;61829;53.286;10.434;2023-09-12T08:23:30;101061.00;;;20.29;98.80
73558;BME280;61829;53.286;10.434;2023-09-12T08:25:57;101051.75;;;20.30;98.62
73558;BME280;61829;53.286;10.434;2023-09-12T08:28:22;101049.25;;;20.28;99.08
73558;BME280;61829;53.286;10.434;2023-09-12T08:30:49;101040.44;;;20.26;99.33
73558;BME280;61829;53.286;10.434;2023-09-12T08:33:15;101042.34;;;20.26;98.89
73558;BME280;61829;53.286;10.434;2023-09-12T08:35:42;101044.50;;;20.24;99.52
73558;BME280;61829;53.286;10.434;2023-09-12T08:38:08;101068.63;;;20.27;99.60
73558;BME280;61829;53.286;10.434;2023-09-12T08:40:35;101085.97;;;20.32;99.32
73558;BME280;61829;53.286;10.434;2023-09-12T08:43:01;101096.56;;;20.40;99.82
73558;BME280;61829;53.286;10.434;2023-09-12T08:45:29;101096.75;;;20.51;100.00
73558;BME280;61829;53.286;10.434;2023-09-12T08:47:59;101094.25;;;20.61;100.00
73558;BME280;61829;53.286;10.434;2023-09-12T08:50:26;101083.75;;;20.70;100.00
73558;BME280;61829;53.286;10.434;2023-09-12T08:52:56;101068.78;;;20.77;100.00
73558;BME280;61829;53.286;10.434;2023-09-12T08:55:23;101079.13;;;20.87;99.78
73558;BME280;61829;53.286;10.434;2023-09-12T08:57:50;101083.94;;;20.97;100.00
73558;BME280;61829;53.286;10.434;2023-09-12T09:00:17;101080.88;;;21.10;100.00
73558;BME280;61829;53.286;10.434;2023-09-12T09:02:43;101078.13;;;21.27;98.91
73558;BME280;61829;53.286;10.434;2023-09-12T09:05:11;101080.56;;;21.40;98.81
73558;BME280;61829;53.286;10.434;2023-09-12T09:07:39;101086.84;;;21.58;97.37
73558;BME280;61829;53.286;10.434;2023-09-12T09:10:07;101086.44;;;21.66;95.83
73558;BME280;61829;53.286;10.434;2023-09-12T09:12:34;101083.59;;;21.61;94.24
73558;BME280;61829;53.286;10.434;2023-09-12T09:15:23;101076.00;;;21.68;94.57
73558;BME280;61829;53.286;10.434;2023-09-12T09:17:52;101064.44;;;21.83;95.05
73558;BME280;61829;53.286;10.434;2023-09-12T09:20:29;101067.56;;;21.91;93.42
73558;BME280;61829;53.286;10.434;2023-09-12T09:22:57;101069.66;;;22.06;92.89
73558;BME280;61829;53.286;10.434;2023-09-12T09:25:24;101083.22;;;22.35;93.61
73558;BME280;61829;53.286;10.434;2023-09-12T09:27:50;101082.53;;;22.50;91.50
73558;BME280;61829;53.286;10.434;2023-09-12T09:30:16;101076.34;;;22.59;91.37
73558;BME280;61829;53.286;10.434;2023-09-12T09:32:44;101078.34;;;22.69;91.07
73558;BME280;61829;53.286;10.434;2023-09-12T09:35:11;101083.38;;;22.77;90.07
73558;BME280;61829;53.286;10.434;2023-09-12T09:37:38;101089.53;;;22.90;89.48
73558;BME280;61829;53.286;10.434;2023-09-12T09:40:06;101093.44;;;22.94;88.26
73558;BME280;61829;53.286;10.434;2023-09-12T09:42:33;101089.72;;;23.05;88.61
73558;BME280;61829;53.286;10.434;2023-09-12T09:44:59;101103.81;;;23.14;87.92
73558;BME280;61829;53.286;10.434;2023-09-12T09:47:25;101102.50;;;23.21;86.94
73558;BME280;61829;53.286;10.434;2023-09-12T09:49:52;101102.03;;;23.35;85.96
73558;BME280;61829;53.286;10.434;2023-09-12T09:52:25;101085.06;;;23.43;85.18
73558;BME280;61829;53.286;10.434;2023-09-12T09:54:55;101093.69;;;23.57;84.43
73558;BME280;61829;53.286;10.434;2023-09-12T09:57:25;101090.72;;;23.68;83.93
73558;BME280;61829;53.286;10.434;2023-09-12T09:59:51;101102.94;;;23.83;83.71
73558;BME280;61829;53.286;10.434;2023-09-12T10:02:18;101103.56;;;23.95;82.76
73558;BME280;61829;53.286;10.434;2023-09-12T10:04:48;101103.31;;;24.02;82.66
73558;BME280;61829;53.286;10.434;2023-09-12T10:07:14;101108.03;;;24.11;82.83
73558;BME280;61829;53.286;10.434;2023-09-12T10:09:43;101103.16;;;24.24;81.88
73558;BME280;61829;53.286;10.434;2023-09-12T10:12:09;101100.94;;;24.31;81.70
73558;BME280;61829;53.286;10.434;2023-09-12T10:14:37;101101.25;;;24.39;81.91
73558;BME280;61829;53.286;10.434;2023-09-12T10:17:05;101106.50;;;24.41;80.41
73558;BME280;61829;53.286;10.434;2023-09-12T10:19:43;101093.81;;;24.35;79.68
73558;BME280;61829;53.286;10.434;2023-09-12T10:24:42;101094.88;;;24.29;79.42
73558;BME280;61829;53.286;10.434;2023-09-12T10:27:11;101087.72;;;24.28;78.89
73558;BME280;61829;53.286;10.434;2023-09-12T10:29:38;101086.31;;;24.15;78.92
73558;BME280;61829;53.286;10.434;2023-09-12T10:32:04;101083.25;;;24.11;79.05
73558;BME280;61829;53.286;10.434;2023-09-12T10:34:32;101073.88;;;24.07;79.20
73558;BME280;61829;53.286;10.434;2023-09-12T10:36:59;101072.47;;;24.00;79.01
73558;BME280;61829;53.286;10.434;2023-09-12T10:39:27;101084.84;;;23.97;79.57
73558;BME280;61829;53.286;10.434;2023-09-12T10:41:54;101090.31;;;23.92;79.89
73558;BME280;61829;53.286;10.434;2023-09-12T10:44:21;101098.56;;;23.87;79.99
73558;BME280;61829;53.286;10.434;2023-09-12T10:46:49;101101.00;;;23.78;80.12
73558;BME280;61829;53.286;10.434;2023-09-12T10:49:17;101116.31;;;23.69;80.85
73558;BME280;61829;53.286;10.434;2023-09-12T10:51:46;101121.72;;;23.53;81.07
73558;BME280;61829;53.286;10.434;2023-09-12T10:54:14;101117.75;;;23.39;81.19
73558;BME280;61829;53.286;10.434;2023-09-12T10:56:40;101128.38;;;23.25;81.98
73558;BME280;61829;53.286;10.434;2023-09-12T11:01:34;101142.13;;;22.98;83.44
73558;BME280;61829;53.286;10.434;2023-09-12T11:06:48;101138.81;;;22.69;85.11
73558;BME280;61829;53.286;10.434;2023-09-12T11:11:47;101125.94;;;22.48;86.13
73558;BME280;61829;53.286;10.434;2023-09-12T11:14:14;101124.41;;;22.35;86.93
73558;BME280;61829;53.286;10.434;2023-09-12T11:16:42;101129.25;;;22.28;87.50
73558;BME280;61829;53.286;10.434;2023-09-12T11:21:49;101128.03;;;22.18;87.97
73558;BME280;61829;53.286;10.434;2023-09-12T11:24:17;101127.91;;;22.08;89.09
73558;BME280;61829;53.286;10.434;2023-09-12T11:26:54;101127.50;;;22.00;89.50
73558;BME280;61829;53.286;10.434;2023-09-12T11:29:21;101108.47;;;21.93;89.56
73558;BME280;61829;53.286;10.434;2023-09-12T11:31:55;101108.38;;;21.88;89.59
73558;BME280;61829;53.286;10.434;2023-09-12T11:34:27;101100.41;;;21.86;90.19
73558;BME280;61829;53.286;10.434;2023-09-12T11:36:58;101110.31;;;21.87;91.10
73558;BME280;61829;53.286;10.434;2023-09-12T11:39:39;101107.25;;;21.84;90.81
73558;BME280;61829;53.286;10.434;2023-09-12T11:42:05;101112.41;;;21.80;90.87
73558;BME280;61829;53.286;10.434;2023-09-12T11:44:36;101114.31;;;21.80;91.00
73558;BME280;61829;53.286;10.434;2023-09-12T11:47:02;101122.22;;;21.76;90.79
73558;BME280;61829;53.286;10.434;2023-09-12T11:49:40;101124.31;;;21.69;91.12
73558;BME280;61829;53.286;10.434;2023-09-12T11:52:14;101114.91;;;21.65;91.25
73558;BME280;61829;53.286;10.434;2023-09-12T11:54:43;101120.66;;;21.63;91.64
73558;BME280;61829;53.286;10.434;2023-09-12T12:01:12;101114.59;;;21.61;92.54
73558;BME280;61829;53.286;10.434;2023-09-12T12:03:38;101119.50;;;21.59;92.80
73558;BME280;61829;53.286;10.434;2023-09-12T12:06:05;101112.28;;;21.53;92.33
73558;BME280;61829;53.286;10.434;2023-09-12T12:08:32;101108.72;;;21.52;92.39
73558;BME280;61829;53.286;10.434;2023-09-12T12:10:58;101107.88;;;21.52;92.31
73558;BME280;61829;53.286;10.434;2023-09-12T12:13:25;101107.06;;;21.51;92.65
73558;BME280;61829;53.286;10.434;2023-09-12T12:15:52;101087.00;;;21.51;91.74
73558;BME280;61829;53.286;10.434;2023-09-12T12:18:19;101077.63;;;21.47;91.75
73558;BME280;61829;53.286;10.434;2023-09-12T12:20:45;101066.41;;;21.48;91.38
73558;BME280;61829;53.286;10.434;2023-09-12T12:23:12;101066.09;;;21.45;91.06
73558;BME280;61829;53.286;10.434;2023-09-12T12:25:38;101073.41;;;21.39;91.42
73558;BME280;61829;53.286;10.434;2023-09-12T12:28:04;101055.69;;;21.30;92.49
73558;BME280;61829;53.286;10.434;2023-09-12T12:30:31;101057.13;;;21.16;92.72
73558;BME280;61829;53.286;10.434;2023-09-12T12:33:01;101072.06;;;21.08;93.73
73558;BME280;61829;53.286;10.434;2023-09-12T12:35:28;101061.59;;;21.05;94.12
73558;BME280;61829;53.286;10.434;2023-09-12T12:37:55;101050.91;;;21.03;94.06
73558;BME280;61829;53.286;10.434;2023-09-12T12:40:24;101044.50;;;20.98;94.34
73558;BME280;61829;53.286;10.434;2023-09-12T12:42:51;101061.19;;;20.96;94.27
73558;BME280;61829;53.286;10.434;2023-09-12T12:45:19;101062.09;;;21.02;94.70
73558;BME280;61829;53.286;10.434;2023-09-12T12:47:46;101044.91;;;21.06;94.82
73558;BME280;61829;53.286;10.434;2023-09-12T12:50:17;101059.78;;;21.11;95.56
73558;BME280;61829;53.286;10.434;2023-09-12T12:52:47;101054.38;;;21.16;95.44
73558;BME280;61829;53.286;10.434;2023-09-12T12:55:14;101050.41;;;21.23;95.33
73558;BME280;61829;53.286;10.434;2023-09-12T12:57:42;101052.38;;;21.28;94.26
73558;BME280;61829;53.286;10.434;2023-09-12T13:00:14;101049.53;;;21.23;94.47
73558;BME280;61829;53.286;10.434;2023-09-12T13:02:41;101056.03;;;21.17;94.43
73558;BME280;61829;53.286;10.434;2023-09-12T13:05:30;101058.53;;;21.18;94.23
73558;BME280;61829;53.286;10.434;2023-09-12T13:07:59;101064.00;;;21.18;94.89